createdAt,value
2023-03-29T00:01:52.868Z,2.20
2023-03-29T00:04:23.482Z,2.63
2023-03-29T00:06:50.875Z,3.17
2023-03-29T00:09:18.492Z,3.47
2023-03-29T00:11:45.508Z,2.80
2023-03-29T00:14:12.810Z,3.00
2023-03-29T00:16:39.659Z,2.80
2023-03-29T00:19:06.533Z,3.20
2023-03-29T00:21:33.455Z,2.95
2023-03-29T00:24:00.556Z,2.80
2023-03-29T00:26:27.401Z,2.70
2023-03-29T00:28:54.348Z,3.38
2023-03-29T00:31:21.342Z,3.05
2023-03-29T00:33:48.312Z,3.10
2023-03-29T00:36:16.153Z,2.80
2023-03-29T00:38:43.300Z,2.80
2023-03-29T00:41:10.869Z,2.42
2023-03-29T00:43:59.711Z,2.13
2023-03-29T00:46:27.718Z,2.20
2023-03-29T00:48:58.096Z,2.30
2023-03-29T00:51:26.999Z,2.75
2023-03-29T00:53:59.026Z,3.00
2023-03-29T00:56:32.014Z,2.47
2023-03-29T00:59:05.593Z,2.60
2023-03-29T01:01:54.985Z,2.58
2023-03-29T01:04:34.180Z,2.40
2023-03-29T01:07:07.777Z,2.30
2023-03-29T01:09:37.835Z,2.33
2023-03-29T01:12:20.087Z,2.42
2023-03-29T01:15:02.390Z,2.20
2023-03-29T01:17:32.023Z,2.35
2023-03-29T01:22:42.870Z,3.00
2023-03-29T01:25:41.589Z,2.97
2023-03-29T01:28:13.661Z,2.60
2023-03-29T01:30:49.489Z,2.50
2023-03-29T01:33:23.805Z,2.60
2023-03-29T01:36:12.166Z,2.90
2023-03-29T01:38:57.433Z,2.45
2023-03-29T01:41:28.820Z,2.80
2023-03-29T01:43:58.819Z,2.72
2023-03-29T01:46:42.676Z,2.45
2023-03-29T01:49:35.031Z,2.40
2023-03-29T01:52:09.252Z,2.30
2023-03-29T01:54:38.724Z,2.00
2023-03-29T01:59:34.858Z,2.28
2023-03-29T02:02:05.887Z,2.40
2023-03-29T02:04:38.532Z,2.15
2023-03-29T02:07:07.592Z,2.22
2023-03-29T02:09:34.544Z,2.40
2023-03-29T02:12:01.572Z,2.28
2023-03-29T02:14:30.759Z,2.40
2023-03-29T02:16:57.618Z,2.60
2023-03-29T02:19:25.478Z,2.28
2023-03-29T02:22:10.551Z,2.47
2023-03-29T02:24:37.642Z,2.10
2023-03-29T02:27:04.571Z,2.30
2023-03-29T02:29:31.377Z,2.10
2023-03-29T02:32:13.391Z,1.90
2023-03-29T02:35:08.225Z,2.50
2023-03-29T02:37:36.577Z,2.00
2023-03-29T02:40:08.200Z,2.10
2023-03-29T02:42:35.069Z,2.08
2023-03-29T02:45:02.292Z,2.10
2023-03-29T02:47:35.470Z,2.00
2023-03-29T02:50:02.441Z,2.00
2023-03-29T02:52:35.203Z,1.95
2023-03-29T02:55:03.341Z,2.15
2023-03-29T02:57:32.584Z,2.10
2023-03-29T03:00:00.094Z,2.13
2023-03-29T03:02:28.239Z,2.05
2023-03-29T03:04:55.319Z,1.92
2023-03-29T03:07:22.244Z,2.03
2023-03-29T03:09:49.239Z,2.00
2023-03-29T03:12:16.189Z,1.95
2023-03-29T03:14:43.552Z,2.22
2023-03-29T03:17:10.550Z,2.10
2023-03-29T03:19:38.388Z,1.80
2023-03-29T03:22:06.174Z,2.03
2023-03-29T03:24:33.190Z,2.40
2023-03-29T03:27:00.422Z,2.25
2023-03-29T03:29:28.603Z,1.90
2023-03-29T03:31:56.055Z,2.20
2023-03-29T03:34:23.157Z,1.90
2023-03-29T03:36:50.868Z,2.00
2023-03-29T03:39:17.777Z,1.90
2023-03-29T03:41:44.650Z,1.95
2023-03-29T03:44:12.068Z,2.08
2023-03-29T03:46:38.956Z,2.10
2023-03-29T03:49:05.940Z,2.33
2023-03-29T03:51:32.951Z,2.38
2023-03-29T03:53:59.901Z,2.20
2023-03-29T03:56:30.165Z,1.92
2023-03-29T03:58:57.691Z,2.30
2023-03-29T04:01:24.748Z,2.25
2023-03-29T04:03:51.767Z,2.08
2023-03-29T04:06:18.877Z,2.20
2023-03-29T04:08:45.806Z,1.92
2023-03-29T04:11:12.664Z,1.95
2023-03-29T04:13:39.699Z,2.00
2023-03-29T04:16:07.739Z,2.08
2023-03-29T04:18:34.805Z,1.90
2023-03-29T04:21:02.191Z,1.85
2023-03-29T04:23:29.208Z,2.00
2023-03-29T04:25:59.834Z,2.30
2023-03-29T04:28:26.748Z,1.90
2023-03-29T04:30:53.719Z,1.85
2023-03-29T04:33:21.447Z,1.95
2023-03-29T04:35:48.324Z,1.70
2023-03-29T04:38:17.018Z,2.08
2023-03-29T04:40:44.375Z,2.00
2023-03-29T04:43:11.414Z,2.42
2023-03-29T04:45:38.439Z,1.92
2023-03-29T04:48:06.032Z,2.10
2023-03-29T04:50:33.222Z,2.03
2023-03-29T04:53:00.588Z,2.28
2023-03-29T04:55:27.720Z,2.13
2023-03-29T04:57:55.803Z,2.08
2023-03-29T05:00:27.540Z,2.25
2023-03-29T05:02:55.109Z,2.28
2023-03-29T05:05:22.458Z,2.20
2023-03-29T05:07:50.050Z,2.15
2023-03-29T05:10:17.550Z,2.30
2023-03-29T05:12:44.776Z,2.10
2023-03-29T05:15:11.872Z,2.28
2023-03-29T05:17:39.614Z,2.10
2023-03-29T05:20:09.810Z,2.03
2023-03-29T05:22:36.748Z,2.45
2023-03-29T05:25:04.324Z,2.30
2023-03-29T05:27:31.171Z,2.00
2023-03-29T05:29:58.039Z,2.33
2023-03-29T05:32:25.100Z,2.30
2023-03-29T05:34:53.150Z,2.50
2023-03-29T05:37:20.340Z,2.42
2023-03-29T05:39:49.131Z,2.45
2023-03-29T05:42:16.473Z,2.20
2023-03-29T05:44:43.420Z,2.30
2023-03-29T05:47:10.813Z,2.78
2023-03-29T05:49:38.275Z,2.95
2023-03-29T05:52:06.864Z,2.40
2023-03-29T05:54:49.281Z,2.90
2023-03-29T05:57:16.432Z,2.97
2023-03-29T05:59:43.268Z,2.70
2023-03-29T06:02:11.874Z,2.67
2023-03-29T06:04:38.775Z,4.33
2023-03-29T06:07:06.033Z,3.17
2023-03-29T06:09:33.808Z,2.80
2023-03-29T06:12:02.133Z,2.70
2023-03-29T06:14:29.163Z,2.63
2023-03-29T06:16:56.728Z,2.42
2023-03-29T06:19:24.404Z,2.50
2023-03-29T06:21:53.348Z,2.67
2023-03-29T06:24:20.774Z,3.00
2023-03-29T06:26:47.712Z,2.53
2023-03-29T06:29:15.074Z,3.00
2023-03-29T06:31:42.475Z,2.83
2023-03-29T06:34:09.601Z,2.95
2023-03-29T06:36:37.104Z,3.03
2023-03-29T06:39:04.477Z,3.03
2023-03-29T06:41:32.057Z,2.80
2023-03-29T06:43:59.175Z,3.13
2023-03-29T06:46:26.366Z,2.60
2023-03-29T06:48:53.673Z,2.80
2023-03-29T06:51:23.183Z,2.70
2023-03-29T06:53:50.753Z,2.63
2023-03-29T06:56:17.752Z,2.67
2023-03-29T06:58:45.285Z,3.17
2023-03-29T07:01:13.048Z,2.63
2023-03-29T07:03:41.520Z,2.58
2023-03-29T07:06:12.473Z,2.90
2023-03-29T07:08:43.830Z,3.80
2023-03-29T07:11:12.745Z,3.67
2023-03-29T07:13:43.167Z,2.80
2023-03-29T07:16:14.048Z,2.88
2023-03-29T07:18:41.948Z,2.60
2023-03-29T07:21:08.863Z,2.58
2023-03-29T07:23:36.287Z,2.38
2023-03-29T07:26:04.116Z,2.67
2023-03-29T07:28:31.374Z,2.70
2023-03-29T07:31:11.360Z,2.70
2023-03-29T07:33:38.679Z,2.80
2023-03-29T07:36:06.582Z,3.20
2023-03-29T07:38:33.534Z,3.40
2023-03-29T07:41:04.192Z,3.58
2023-03-29T07:43:31.592Z,3.40
2023-03-29T07:46:05.598Z,5.93
2023-03-29T07:48:33.241Z,4.97
2023-03-29T07:51:00.368Z,3.53
2023-03-29T07:53:29.867Z,3.80
2023-03-29T07:55:57.348Z,3.10
2023-03-29T07:58:24.463Z,3.10
2023-03-29T08:00:51.522Z,2.80
2023-03-29T08:03:18.546Z,7.20
2023-03-29T08:05:45.518Z,4.13
2023-03-29T08:08:14.398Z,3.20
2023-03-29T08:10:42.830Z,2.83
2023-03-29T08:13:09.853Z,3.00
2023-03-29T08:15:38.641Z,2.47
2023-03-29T08:18:06.972Z,2.63
2023-03-29T08:20:33.898Z,3.08
2023-03-29T08:23:01.249Z,2.53
2023-03-29T08:25:28.091Z,2.80
2023-03-29T08:27:54.930Z,2.67
2023-03-29T08:30:22.110Z,2.50
2023-03-29T08:32:52.290Z,2.90
2023-03-29T08:35:22.179Z,2.80
2023-03-29T08:37:49.101Z,3.25
2023-03-29T08:40:21.576Z,3.03
2023-03-29T08:43:12.840Z,2.70
2023-03-29T08:45:54.532Z,2.70
2023-03-29T08:48:28.724Z,2.80
2023-03-29T08:51:02.275Z,2.90
2023-03-29T08:53:35.906Z,2.72
2023-03-29T08:56:07.227Z,2.92
2023-03-29T08:58:34.220Z,2.70
2023-03-29T09:01:02.065Z,2.80
2023-03-29T09:03:35.252Z,2.75
2023-03-29T09:06:07.135Z,2.63
2023-03-29T09:08:42.229Z,2.60
2023-03-29T09:11:12.176Z,2.60
2023-03-29T09:13:41.407Z,2.47
2023-03-29T09:16:20.327Z,2.70
2023-03-29T09:18:50.037Z,2.72
2023-03-29T09:21:56.795Z,2.72
2023-03-29T09:24:33.905Z,2.83
2023-03-29T09:27:08.937Z,2.80
2023-03-29T09:29:53.276Z,3.20
2023-03-29T09:32:22.680Z,2.80
2023-03-29T09:35:14.610Z,2.97
2023-03-29T09:37:41.947Z,2.60
2023-03-29T09:40:14.828Z,2.40
2023-03-29T09:42:41.761Z,2.53
2023-03-29T09:45:09.437Z,2.55
2023-03-29T09:48:02.471Z,2.10
2023-03-29T09:50:38.101Z,2.33
2023-03-29T09:53:05.856Z,2.40
2023-03-29T09:55:34.277Z,2.10
2023-03-29T09:58:01.996Z,2.03
2023-03-29T10:00:28.959Z,2.60
2023-03-29T10:02:58.124Z,2.55
2023-03-29T10:05:25.869Z,2.20
2023-03-29T10:07:54.514Z,2.15
2023-03-29T10:10:28.775Z,1.85
2023-03-29T10:13:00.135Z,2.30
2023-03-29T10:15:30.797Z,1.95
2023-03-29T10:17:59.849Z,2.30
2023-03-29T10:22:58.552Z,2.25
2023-03-29T10:25:33.259Z,1.92
2023-03-29T10:28:17.739Z,2.20
2023-03-29T10:30:46.149Z,2.22
2023-03-29T10:33:16.687Z,2.20
2023-03-29T10:35:43.822Z,2.28
2023-03-29T10:38:13.607Z,1.90
2023-03-29T10:40:45.830Z,2.08
2023-03-29T10:43:38.785Z,2.80
2023-03-29T10:46:18.374Z,2.30
2023-03-29T10:48:50.816Z,2.15
2023-03-29T10:51:18.846Z,2.38
2023-03-29T10:53:46.115Z,2.30
2023-03-29T10:56:18.946Z,2.20
2023-03-29T10:58:48.837Z,2.10
2023-03-29T11:01:41.639Z,1.90
2023-03-29T11:04:28.646Z,2.10
2023-03-29T11:07:11.254Z,2.20
2023-03-29T11:09:59.749Z,2.00
2023-03-29T11:13:08.685Z,2.25
2023-03-29T11:15:52.089Z,2.20
2023-03-29T11:18:30.746Z,2.45
2023-03-29T11:21:10.732Z,2.55
2023-03-29T11:24:03.658Z,2.05
2023-03-29T11:26:30.712Z,2.40
2023-03-29T11:29:09.608Z,2.67
2023-03-29T11:34:15.748Z,2.00
2023-03-29T11:36:50.653Z,2.40
2023-03-29T11:39:27.317Z,2.55
2023-03-29T11:41:55.319Z,2.40
2023-03-29T11:44:28.148Z,2.57
2023-03-29T11:47:03.749Z,2.40
2023-03-29T11:49:42.055Z,2.33
2023-03-29T11:52:14.836Z,2.80
2023-03-29T11:55:04.248Z,2.70
2023-03-29T11:57:54.198Z,3.17
2023-03-29T12:00:33.398Z,2.42
2023-03-29T12:03:02.991Z,2.45
2023-03-29T12:05:36.967Z,2.65
2023-03-29T12:08:16.713Z,2.42
2023-03-29T12:10:50.883Z,2.40
2023-03-29T12:13:29.554Z,2.33
2023-03-29T12:15:58.183Z,2.63
2023-03-29T12:18:34.295Z,2.60
2023-03-29T12:21:03.597Z,2.38
2023-03-29T12:23:33.743Z,2.63
2023-03-29T12:26:06.635Z,2.30
2023-03-29T12:28:58.854Z,2.45
2023-03-29T12:31:52.910Z,2.10
2023-03-29T12:34:31.243Z,2.45
2023-03-29T12:37:19.269Z,2.25
2023-03-29T12:39:46.336Z,2.45
2023-03-29T12:42:18.234Z,2.33
2023-03-29T12:44:59.068Z,2.60
2023-03-29T12:47:30.320Z,2.45
2023-03-29T12:49:58.635Z,2.45
2023-03-29T12:52:35.642Z,3.22
2023-03-29T12:55:05.128Z,2.45
2023-03-29T12:57:37.911Z,2.60
2023-03-29T13:00:25.762Z,2.63
2023-03-29T13:03:03.886Z,2.50
2023-03-29T13:05:35.401Z,2.67
2023-03-29T13:08:23.529Z,2.58
2023-03-29T13:10:54.938Z,2.47
2023-03-29T13:13:31.191Z,2.10
2023-03-29T13:16:18.893Z,2.58
2023-03-29T13:19:11.617Z,2.15
2023-03-29T13:22:02.504Z,2.38
2023-03-29T13:24:45.152Z,2.30
2023-03-29T13:27:58.466Z,2.10
2023-03-29T13:30:31.115Z,2.30
2023-03-29T13:33:07.630Z,2.40
2023-03-29T13:35:59.150Z,2.20
2023-03-29T13:38:31.832Z,2.60
2023-03-29T13:41:04.226Z,2.30
2023-03-29T13:43:35.532Z,2.53
2023-03-29T13:46:03.905Z,2.10
2023-03-29T13:48:33.929Z,2.30
2023-03-29T13:51:19.530Z,2.50
2023-03-29T13:54:15.119Z,2.10
2023-03-29T13:57:04.389Z,2.20
2023-03-29T13:59:59.508Z,2.20
2023-03-29T14:02:48.093Z,2.33
2023-03-29T14:05:18.745Z,2.10
2023-03-29T14:07:53.488Z,2.70
2023-03-29T14:10:25.939Z,2.55
2023-03-29T14:12:53.214Z,2.83
2023-03-29T14:15:25.354Z,2.10
2023-03-29T14:17:58.964Z,2.15
2023-03-29T14:20:27.668Z,2.22
2023-03-29T14:22:54.714Z,2.40
2023-03-29T14:25:22.824Z,2.58
2023-03-29T14:27:50.149Z,2.30
2023-03-29T14:30:27.838Z,1.95
2023-03-29T14:32:55.190Z,2.40
2023-03-29T14:35:27.619Z,2.35
2023-03-29T14:37:54.594Z,2.20
2023-03-29T14:40:22.106Z,2.00
2023-03-29T14:42:49.245Z,2.38
2023-03-29T14:45:17.863Z,2.28
2023-03-29T14:47:44.929Z,2.30
2023-03-29T14:50:38.249Z,2.25
2023-03-29T14:53:06.167Z,2.42
2023-03-29T14:55:33.181Z,2.20
2023-03-29T14:58:00.736Z,2.40
2023-03-29T15:00:30.391Z,2.45
2023-03-29T15:02:59.628Z,2.35
2023-03-29T15:05:31.548Z,2.20
2023-03-29T15:07:58.558Z,2.25
2023-03-29T15:10:25.775Z,2.45
2023-03-29T15:12:52.893Z,2.15
2023-03-29T15:15:20.021Z,2.65
2023-03-29T15:17:50.853Z,2.17
2023-03-29T15:20:25.144Z,2.38
2023-03-29T15:23:04.391Z,2.70
2023-03-29T15:25:58.856Z,2.78
2023-03-29T15:28:36.133Z,2.83
2023-03-29T15:31:13.383Z,2.70
2023-03-29T15:33:41.175Z,3.08
2023-03-29T15:36:09.202Z,3.08
2023-03-29T15:38:44.148Z,2.63
2023-03-29T15:41:13.580Z,2.30
2023-03-29T15:43:41.538Z,2.60
2023-03-29T15:46:08.973Z,3.05
2023-03-29T15:48:36.136Z,2.40
2023-03-29T15:51:06.495Z,2.88
2023-03-29T15:53:36.309Z,2.50
2023-03-29T15:56:04.318Z,2.70
2023-03-29T15:58:31.982Z,2.58
2023-03-29T16:01:11.605Z,2.38
2023-03-29T16:03:42.016Z,2.60
2023-03-29T16:06:12.462Z,2.30
2023-03-29T16:08:39.361Z,2.20
2023-03-29T16:11:07.184Z,2.53
2023-03-29T16:13:34.129Z,2.70
2023-03-29T16:16:01.630Z,2.80
2023-03-29T16:18:28.825Z,2.53
2023-03-29T16:20:56.961Z,2.30
2023-03-29T16:23:23.872Z,2.20
2023-03-29T16:25:51.119Z,2.30
2023-03-29T16:28:18.129Z,2.40
2023-03-29T16:30:45.043Z,2.72
2023-03-29T16:33:11.915Z,2.70
2023-03-29T16:35:42.598Z,2.90
2023-03-29T16:38:09.768Z,2.80
2023-03-29T16:40:36.977Z,2.40
2023-03-29T16:43:04.057Z,2.15
2023-03-29T16:45:31.218Z,2.72
2023-03-29T16:47:58.244Z,2.50
2023-03-29T16:50:25.223Z,2.88
2023-03-29T16:52:52.860Z,2.28
2023-03-29T16:55:20.413Z,3.00
2023-03-29T16:57:47.890Z,3.08
2023-03-29T17:00:16.367Z,2.83
2023-03-29T17:02:44.089Z,3.20
2023-03-29T17:05:14.277Z,3.00
2023-03-29T17:07:41.388Z,3.05
2023-03-29T17:10:08.582Z,2.85
2023-03-29T17:12:35.809Z,2.80
2023-03-29T17:15:04.452Z,3.03
2023-03-29T17:17:32.037Z,2.70
2023-03-29T17:19:59.107Z,2.90
2023-03-29T17:22:25.992Z,2.45
2023-03-29T17:24:52.888Z,3.00
2023-03-29T17:27:19.897Z,2.65
2023-03-29T17:29:46.779Z,2.83
2023-03-29T17:32:13.692Z,3.10
2023-03-29T17:34:41.161Z,2.65
2023-03-29T17:37:08.084Z,2.83
2023-03-29T17:39:37.772Z,2.22
2023-03-29T17:42:05.474Z,3.00
2023-03-29T17:44:33.577Z,2.85
2023-03-29T17:47:01.522Z,2.95
2023-03-29T17:49:28.783Z,2.90
2023-03-29T17:51:56.078Z,2.60
2023-03-29T17:54:23.040Z,3.40
2023-03-29T17:56:50.793Z,2.88
2023-03-29T17:59:17.743Z,2.75
2023-03-29T18:01:44.724Z,2.38
2023-03-29T18:04:11.735Z,2.55
2023-03-29T18:06:38.731Z,2.70
2023-03-29T18:09:05.844Z,3.28
2023-03-29T18:11:32.862Z,2.85
2023-03-29T18:14:00.592Z,2.80
2023-03-29T18:16:27.638Z,2.92
2023-03-29T18:18:54.558Z,2.78
2023-03-29T18:21:22.440Z,3.20
2023-03-29T18:23:49.397Z,2.67
2023-03-29T18:26:16.744Z,3.03
2023-03-29T18:28:47.396Z,2.80
2023-03-29T18:31:14.802Z,2.58
2023-03-29T18:33:41.795Z,2.95
2023-03-29T18:36:11.992Z,2.50
2023-03-29T18:38:40.757Z,2.47
2023-03-29T18:41:08.750Z,2.78
2023-03-29T18:43:36.213Z,2.85
2023-03-29T18:46:03.430Z,2.88
2023-03-29T18:48:31.590Z,3.03
2023-03-29T18:50:58.503Z,2.55
2023-03-29T18:53:26.432Z,3.35
2023-03-29T18:55:53.405Z,3.35
2023-03-29T18:58:24.306Z,2.92
2023-03-29T19:00:51.892Z,3.20
2023-03-29T19:03:18.843Z,2.80
2023-03-29T19:05:45.709Z,3.08
2023-03-29T19:08:12.580Z,2.60
2023-03-29T19:10:39.533Z,3.15
2023-03-29T19:13:06.411Z,2.80
2023-03-29T19:15:34.963Z,2.88
2023-03-29T19:18:02.016Z,3.15
2023-03-29T19:20:29.573Z,3.20
2023-03-29T19:22:56.619Z,3.05
2023-03-29T19:25:23.501Z,3.17
2023-03-29T19:27:50.577Z,3.00
2023-03-29T19:30:18.626Z,3.15
2023-03-29T19:32:45.809Z,2.95
2023-03-29T19:35:13.550Z,3.20
2023-03-29T19:37:40.587Z,2.90
2023-03-29T19:40:11.276Z,3.20
2023-03-29T19:42:38.800Z,3.50
2023-03-29T19:45:06.806Z,3.35
2023-03-29T19:47:34.403Z,3.17
2023-03-29T19:50:01.468Z,3.03
2023-03-29T19:52:28.856Z,3.17
2023-03-29T19:54:57.023Z,3.42
2023-03-29T19:57:24.525Z,3.38
2023-03-29T19:59:54.014Z,3.55
2023-03-29T20:02:21.025Z,3.80
2023-03-29T20:04:47.904Z,3.13
2023-03-29T20:07:14.712Z,3.22
2023-03-29T20:09:44.646Z,3.17
2023-03-29T20:12:12.421Z,3.70
2023-03-29T20:14:40.474Z,3.30
2023-03-29T20:17:07.629Z,3.13
2023-03-29T20:19:36.777Z,3.50
2023-03-29T20:22:04.601Z,3.22
2023-03-29T20:24:32.836Z,3.20
2023-03-29T20:26:59.762Z,3.38
2023-03-29T20:29:27.522Z,3.20
2023-03-29T20:31:54.493Z,3.40
2023-03-29T20:34:22.386Z,3.30
2023-03-29T20:36:49.444Z,3.20
2023-03-29T20:39:20.034Z,3.30
2023-03-29T20:41:48.186Z,3.25
2023-03-29T20:44:17.099Z,3.17
2023-03-29T20:46:54.616Z,3.40
2023-03-29T20:49:26.691Z,2.83
2023-03-29T20:51:58.751Z,3.17
2023-03-29T20:54:26.294Z,3.30
2023-03-29T20:56:55.100Z,3.15
2023-03-29T20:59:23.014Z,3.40
2023-03-29T21:01:50.741Z,3.42
2023-03-29T21:04:17.805Z,3.17
2023-03-29T21:06:45.870Z,3.75
2023-03-29T21:09:13.961Z,3.10
2023-03-29T21:11:41.111Z,3.75
2023-03-29T21:14:09.510Z,3.47
2023-03-29T21:16:36.564Z,3.50
2023-03-29T21:19:03.406Z,3.63
2023-03-29T21:21:30.444Z,3.15
2023-03-29T21:23:57.359Z,3.17
2023-03-29T21:26:24.270Z,3.20
2023-03-29T21:28:51.146Z,3.50
2023-03-29T21:31:18.111Z,3.55
2023-03-29T21:33:45.148Z,3.38
2023-03-29T21:36:12.108Z,3.20
2023-03-29T21:38:39.069Z,3.85
2023-03-29T21:41:07.151Z,3.30
2023-03-29T21:43:34.033Z,3.67
2023-03-29T21:46:01.093Z,3.35
2023-03-29T21:48:27.934Z,3.50
2023-03-29T21:50:55.206Z,3.63
2023-03-29T21:53:22.081Z,4.13
2023-03-29T21:55:49.702Z,3.58
2023-03-29T21:58:16.841Z,3.45
2023-03-29T22:00:44.000Z,3.65
2023-03-29T22:03:11.003Z,3.83
2023-03-29T22:05:37.974Z,4.03
2023-03-29T22:08:05.381Z,3.40
2023-03-29T22:10:33.308Z,3.20
2023-03-29T22:13:00.813Z,3.78
2023-03-29T22:15:29.527Z,3.30
2023-03-29T22:17:59.225Z,3.20
2023-03-29T22:20:27.903Z,3.58
2023-03-29T22:22:55.743Z,3.60
2023-03-29T22:25:24.730Z,4.00
2023-03-29T22:27:51.656Z,3.97
2023-03-29T22:30:18.633Z,3.92
2023-03-29T22:32:45.639Z,3.30
2023-03-29T22:35:12.607Z,3.53
2023-03-29T22:37:43.439Z,3.70
2023-03-29T22:40:12.267Z,3.67
2023-03-29T22:42:39.148Z,3.67
2023-03-29T22:45:06.721Z,3.47
2023-03-29T22:47:35.542Z,3.58
2023-03-29T22:50:02.381Z,3.15
2023-03-29T22:52:29.380Z,2.85
2023-03-29T22:54:56.793Z,3.20
2023-03-29T22:57:24.151Z,3.85
2023-03-29T22:59:51.268Z,4.20
2023-03-29T23:02:18.242Z,3.80
2023-03-29T23:04:45.951Z,3.50
2023-03-29T23:07:12.824Z,3.33
2023-03-29T23:09:39.880Z,3.13
2023-03-29T23:12:07.022Z,3.30
2023-03-29T23:14:34.199Z,3.38
2023-03-29T23:17:01.287Z,3.70
2023-03-29T23:19:28.303Z,3.95
2023-03-29T23:21:55.262Z,3.35
2023-03-29T23:24:23.088Z,3.42
2023-03-29T23:26:50.002Z,3.35
2023-03-29T23:29:16.892Z,3.75
2023-03-29T23:31:44.621Z,3.75
2023-03-29T23:34:13.642Z,3.45
2023-03-29T23:36:40.673Z,3.67
2023-03-29T23:39:08.178Z,3.25
2023-03-29T23:41:35.243Z,3.30
2023-03-29T23:44:03.760Z,3.35
2023-03-29T23:46:31.531Z,3.10
2023-03-29T23:48:58.547Z,3.20
2023-03-29T23:51:28.705Z,3.38
2023-03-29T23:53:56.097Z,3.10
2023-03-29T23:56:23.182Z,3.40
2023-03-29T23:58:50.116Z,3.30
